createdAt,value
2023-03-29T00:01:56.951Z,3.30
2023-03-29T00:04:27.518Z,3.30
2023-03-29T00:06:55.022Z,3.40
2023-03-29T00:09:21.959Z,3.40
2023-03-29T00:11:48.648Z,3.50
2023-03-29T00:14:15.475Z,3.50
2023-03-29T00:16:44.484Z,3.60
2023-03-29T00:19:11.175Z,3.70
2023-03-29T00:21:37.826Z,3.80
2023-03-29T00:24:04.548Z,3.90
2023-03-29T00:26:31.173Z,4.00
2023-03-29T00:28:57.846Z,4.10
2023-03-29T00:31:24.456Z,4.20
2023-03-29T00:33:51.351Z,4.40
2023-03-29T00:36:18.030Z,4.50
2023-03-29T00:38:44.675Z,4.60
2023-03-29T00:41:11.818Z,4.60
2023-03-29T00:43:51.642Z,4.70
2023-03-29T00:46:18.404Z,4.70
2023-03-29T00:48:45.150Z,4.70
2023-03-29T00:51:14.305Z,4.70
2023-03-29T00:53:48.464Z,4.80
2023-03-29T00:56:21.640Z,4.80
2023-03-29T00:59:03.667Z,4.70
2023-03-29T01:01:38.049Z,4.70
2023-03-29T01:04:08.341Z,4.70
2023-03-29T01:06:39.245Z,4.70
2023-03-29T01:09:08.755Z,4.60
2023-03-29T01:11:42.036Z,4.60
2023-03-29T01:14:15.518Z,4.60
2023-03-29T01:16:42.389Z,4.50
2023-03-29T01:19:10.044Z,4.50
2023-03-29T01:21:44.843Z,4.40
2023-03-29T01:24:24.748Z,4.50
2023-03-29T01:27:11.328Z,4.40
2023-03-29T01:29:45.820Z,4.40
2023-03-29T01:32:18.116Z,4.40
2023-03-29T01:34:49.172Z,4.40
2023-03-29T01:37:18.870Z,4.40
2023-03-29T01:39:45.932Z,4.40
2023-03-29T01:42:12.556Z,4.40
2023-03-29T01:44:48.542Z,4.40
2023-03-29T01:47:27.498Z,4.40
2023-03-29T01:50:02.091Z,4.40
2023-03-29T01:52:34.424Z,4.40
2023-03-29T01:55:04.100Z,4.40
2023-03-29T01:57:33.248Z,4.30
2023-03-29T02:00:00.484Z,4.30
2023-03-29T02:02:27.764Z,4.30
2023-03-29T02:04:56.068Z,4.30
2023-03-29T02:07:25.040Z,4.30
2023-03-29T02:09:52.715Z,4.30
2023-03-29T02:12:20.000Z,4.30
2023-03-29T02:14:46.631Z,4.30
2023-03-29T02:17:19.696Z,4.30
2023-03-29T02:19:51.322Z,4.30
2023-03-29T02:22:22.826Z,4.30
2023-03-29T02:24:50.944Z,4.30
2023-03-29T02:27:17.541Z,4.30
2023-03-29T02:29:46.846Z,4.20
2023-03-29T02:32:20.263Z,4.20
2023-03-29T02:34:50.528Z,4.20
2023-03-29T02:37:19.027Z,4.20
2023-03-29T02:39:47.685Z,4.20
2023-03-29T02:42:17.019Z,4.20
2023-03-29T02:44:45.053Z,4.20
2023-03-29T02:47:22.948Z,4.20
2023-03-29T02:49:49.743Z,4.10
2023-03-29T02:52:17.680Z,4.10
2023-03-29T02:54:45.924Z,4.10
2023-03-29T02:57:13.408Z,4.10
2023-03-29T02:59:43.744Z,4.10
2023-03-29T03:02:11.811Z,4.00
2023-03-29T03:04:38.496Z,4.00
2023-03-29T03:07:05.433Z,4.00
2023-03-29T03:09:32.454Z,4.00
2023-03-29T03:11:59.060Z,4.00
2023-03-29T03:14:25.676Z,4.00
2023-03-29T03:16:52.802Z,4.00
2023-03-29T03:19:19.876Z,4.00
2023-03-29T03:21:47.018Z,3.90
2023-03-29T03:24:13.692Z,3.90
2023-03-29T03:26:40.336Z,3.90
2023-03-29T03:29:06.985Z,3.80
2023-03-29T03:31:33.709Z,3.80
2023-03-29T03:34:00.396Z,3.80
2023-03-29T03:36:29.441Z,3.70
2023-03-29T03:38:56.313Z,3.70
2023-03-29T03:41:23.087Z,3.70
2023-03-29T03:43:49.822Z,3.60
2023-03-29T03:46:17.136Z,3.60
2023-03-29T03:48:44.389Z,3.60
2023-03-29T03:51:11.058Z,3.50
2023-03-29T03:53:38.004Z,3.50
2023-03-29T03:56:08.918Z,3.50
2023-03-29T03:58:36.494Z,3.40
2023-03-29T04:01:04.201Z,3.40
2023-03-29T04:03:31.658Z,3.40
2023-03-29T04:06:02.021Z,3.40
2023-03-29T04:08:28.722Z,3.30
2023-03-29T04:10:56.172Z,3.30
2023-03-29T04:13:23.459Z,3.30
2023-03-29T04:15:54.293Z,3.30
2023-03-29T04:18:21.448Z,3.30
2023-03-29T04:20:48.822Z,3.40
2023-03-29T04:23:16.093Z,3.40
2023-03-29T04:25:43.083Z,3.40
2023-03-29T04:28:10.771Z,3.40
2023-03-29T04:30:37.430Z,3.50
2023-03-29T04:33:04.200Z,3.50
2023-03-29T04:35:30.846Z,3.50
2023-03-29T04:37:57.542Z,3.50
2023-03-29T04:40:24.187Z,3.60
2023-03-29T04:42:51.732Z,3.60
2023-03-29T04:45:18.525Z,3.60
2023-03-29T04:47:45.935Z,3.60
2023-03-29T04:50:12.794Z,3.70
2023-03-29T04:52:39.474Z,3.70
2023-03-29T04:55:07.095Z,3.80
2023-03-29T04:57:34.177Z,3.90
2023-03-29T05:00:01.184Z,4.10
2023-03-29T05:02:27.918Z,4.20
2023-03-29T05:04:54.596Z,4.30
2023-03-29T05:07:21.913Z,4.50
2023-03-29T05:09:48.608Z,4.60
2023-03-29T05:12:15.380Z,4.70
2023-03-29T05:14:42.040Z,4.90
2023-03-29T05:17:08.904Z,5.00
2023-03-29T05:19:36.908Z,5.10
2023-03-29T05:22:03.714Z,5.20
2023-03-29T05:24:30.643Z,5.30
2023-03-29T05:26:57.371Z,5.40
2023-03-29T05:29:24.100Z,5.50
2023-03-29T05:31:53.517Z,5.50
2023-03-29T05:34:22.690Z,5.60
2023-03-29T05:36:52.962Z,5.70
2023-03-29T05:39:19.668Z,5.70
2023-03-29T05:41:47.930Z,5.80
2023-03-29T05:44:14.581Z,5.90
2023-03-29T05:46:41.921Z,5.90
2023-03-29T05:49:08.745Z,6.00
2023-03-29T05:51:38.314Z,6.10
2023-03-29T05:54:10.298Z,6.20
2023-03-29T05:56:39.382Z,6.20
2023-03-29T05:59:06.141Z,6.20
2023-03-29T06:01:34.038Z,6.30
2023-03-29T06:04:03.459Z,6.40
2023-03-29T06:06:32.795Z,6.40
2023-03-29T06:09:05.399Z,6.50
2023-03-29T06:11:32.883Z,6.50
2023-03-29T06:14:01.458Z,6.60
2023-03-29T06:16:29.084Z,6.60
2023-03-29T06:18:57.004Z,6.60
2023-03-29T06:21:24.566Z,6.70
2023-03-29T06:23:51.405Z,6.70
2023-03-29T06:26:18.961Z,6.70
2023-03-29T06:28:46.266Z,6.80
2023-03-29T06:31:13.219Z,6.80
2023-03-29T06:33:42.254Z,6.80
2023-03-29T06:36:13.984Z,6.90
2023-03-29T06:38:41.695Z,6.90
2023-03-29T06:41:11.332Z,6.90
2023-03-29T06:43:41.915Z,7.00
2023-03-29T06:46:14.435Z,7.00
2023-03-29T06:48:41.527Z,7.10
2023-03-29T06:51:13.544Z,7.20
2023-03-29T06:53:44.894Z,7.40
2023-03-29T06:56:11.653Z,7.50
2023-03-29T06:58:39.186Z,7.60
2023-03-29T07:01:08.053Z,7.80
2023-03-29T07:03:35.996Z,8.00
2023-03-29T07:06:09.619Z,8.20
2023-03-29T07:08:43.134Z,8.40
2023-03-29T07:11:12.714Z,8.70
2023-03-29T07:13:42.996Z,9.00
2023-03-29T07:16:12.709Z,9.30
2023-03-29T07:18:41.503Z,9.60
2023-03-29T07:21:08.991Z,9.90
2023-03-29T07:23:36.034Z,10.20
2023-03-29T07:26:02.851Z,10.30
2023-03-29T07:28:29.778Z,10.40
2023-03-29T07:31:11.057Z,10.60
2023-03-29T07:33:38.050Z,10.90
2023-03-29T07:36:05.137Z,11.30
2023-03-29T07:38:32.451Z,11.60
2023-03-29T07:40:59.282Z,11.80
2023-03-29T07:43:25.913Z,12.00
2023-03-29T07:45:53.025Z,12.00
2023-03-29T07:48:20.217Z,11.90
2023-03-29T07:50:46.872Z,11.80
2023-03-29T07:53:13.590Z,11.60
2023-03-29T07:55:47.366Z,11.40
2023-03-29T07:58:14.546Z,11.20
2023-03-29T08:00:41.569Z,11.10
2023-03-29T08:03:10.509Z,11.00
2023-03-29T08:05:41.478Z,11.00
2023-03-29T08:08:09.730Z,11.00
2023-03-29T08:10:37.681Z,11.10
2023-03-29T08:13:07.372Z,11.10
2023-03-29T08:15:34.813Z,11.20
2023-03-29T08:18:01.483Z,11.20
2023-03-29T08:20:28.598Z,11.20
2023-03-29T08:22:55.567Z,11.10
2023-03-29T08:25:22.282Z,11.00
2023-03-29T08:27:49.465Z,11.00
2023-03-29T08:30:16.507Z,10.90
2023-03-29T08:32:43.338Z,10.80
2023-03-29T08:35:10.150Z,10.80
2023-03-29T08:37:37.294Z,10.70
2023-03-29T08:40:04.243Z,10.60
2023-03-29T08:42:33.865Z,10.60
2023-03-29T08:45:05.657Z,10.60
2023-03-29T08:47:46.958Z,10.60
2023-03-29T08:50:13.982Z,10.70
2023-03-29T08:52:46.696Z,10.90
2023-03-29T08:55:45.913Z,11.10
2023-03-29T08:58:14.553Z,11.80
2023-03-29T09:00:44.141Z,12.80
2023-03-29T09:03:22.180Z,13.60
2023-03-29T09:05:51.491Z,14.20
2023-03-29T09:08:19.308Z,14.40
2023-03-29T09:10:58.130Z,14.40
2023-03-29T09:13:57.374Z,14.20
2023-03-29T09:16:33.579Z,14.00
2023-03-29T09:19:01.100Z,13.60
2023-03-29T09:21:32.847Z,13.30
2023-03-29T09:24:08.661Z,13.10
2023-03-29T09:26:54.618Z,13.10
2023-03-29T09:29:53.743Z,13.10
2023-03-29T09:32:28.565Z,13.00
2023-03-29T09:35:15.407Z,13.00
2023-03-29T09:37:42.500Z,13.00
2023-03-29T09:40:15.735Z,13.00
2023-03-29T09:42:43.889Z,13.00
2023-03-29T09:45:10.636Z,13.00
2023-03-29T09:47:52.289Z,12.90
2023-03-29T09:50:31.087Z,12.80
2023-03-29T09:52:59.200Z,12.80
2023-03-29T09:55:27.625Z,12.80
2023-03-29T09:57:56.063Z,13.00
2023-03-29T10:00:22.761Z,13.30
2023-03-29T10:02:53.721Z,13.60
2023-03-29T10:05:20.555Z,13.90
2023-03-29T10:07:50.674Z,14.10
2023-03-29T10:10:22.765Z,14.10
2023-03-29T10:12:50.462Z,14.00
2023-03-29T10:15:29.252Z,14.00
2023-03-29T10:18:00.769Z,14.00
2023-03-29T10:20:27.523Z,14.00
2023-03-29T10:22:58.517Z,13.90
2023-03-29T10:25:32.802Z,14.00
2023-03-29T10:28:13.479Z,14.00
2023-03-29T10:30:40.197Z,14.00
2023-03-29T10:33:15.154Z,14.20
2023-03-29T10:35:43.882Z,14.20
2023-03-29T10:38:13.317Z,14.20
2023-03-29T10:40:45.123Z,14.20
2023-03-29T10:43:13.950Z,14.30
2023-03-29T10:45:41.072Z,14.40
2023-03-29T10:48:14.794Z,14.60
2023-03-29T10:50:42.815Z,14.90
2023-03-29T10:53:21.455Z,15.20
2023-03-29T10:55:54.276Z,15.70
2023-03-29T10:58:37.814Z,15.80
2023-03-29T11:01:04.746Z,15.90
2023-03-29T11:03:31.611Z,15.90
2023-03-29T11:06:04.644Z,15.90
2023-03-29T11:08:51.235Z,15.90
2023-03-29T11:11:36.258Z,15.80
2023-03-29T11:14:06.546Z,15.80
2023-03-29T11:16:39.001Z,15.90
2023-03-29T11:19:17.696Z,15.90
2023-03-29T11:21:59.624Z,15.90
2023-03-29T11:24:46.776Z,15.90
2023-03-29T11:27:13.390Z,16.00
2023-03-29T11:29:43.489Z,16.20
2023-03-29T11:33:01.916Z,16.30
2023-03-29T11:35:44.218Z,16.30
2023-03-29T11:38:15.098Z,16.30
2023-03-29T11:40:44.547Z,16.40
2023-03-29T11:43:13.626Z,16.40
2023-03-29T11:45:50.304Z,16.50
2023-03-29T11:48:21.256Z,16.50
2023-03-29T11:50:50.227Z,16.50
2023-03-29T11:53:22.764Z,16.40
2023-03-29T11:55:51.296Z,16.30
2023-03-29T11:58:34.512Z,16.20
2023-03-29T12:01:13.781Z,16.10
2023-03-29T12:03:43.642Z,16.10
2023-03-29T12:06:30.982Z,16.20
2023-03-29T12:09:01.252Z,16.40
2023-03-29T12:11:36.302Z,16.60
2023-03-29T12:14:10.728Z,17.00
2023-03-29T12:16:43.379Z,17.30
2023-03-29T12:19:17.193Z,17.60
2023-03-29T12:21:45.776Z,17.80
2023-03-29T12:24:13.161Z,17.80
2023-03-29T12:26:40.495Z,17.80
2023-03-29T12:29:07.304Z,17.60
2023-03-29T12:31:42.056Z,17.50
2023-03-29T12:34:18.808Z,17.40
2023-03-29T12:36:52.066Z,17.30
2023-03-29T12:39:20.370Z,17.20
2023-03-29T12:41:49.224Z,17.10
2023-03-29T12:44:16.684Z,17.00
2023-03-29T12:46:43.634Z,16.90
2023-03-29T12:49:12.483Z,16.70
2023-03-29T12:51:40.976Z,16.40
2023-03-29T12:54:21.626Z,16.10
2023-03-29T12:56:51.733Z,16.10
2023-03-29T12:59:27.036Z,16.10
2023-03-29T13:01:58.309Z,16.10
2023-03-29T13:04:35.238Z,16.20
2023-03-29T13:07:05.780Z,16.30
2023-03-29T13:09:47.254Z,16.60
2023-03-29T13:12:35.753Z,16.80
2023-03-29T13:15:04.004Z,17.10
2023-03-29T13:17:39.761Z,17.40
2023-03-29T13:20:09.452Z,17.60
2023-03-29T13:22:53.906Z,17.60
2023-03-29T13:25:32.100Z,17.60
2023-03-29T13:27:58.756Z,17.60
2023-03-29T13:30:34.076Z,17.60
2023-03-29T13:33:21.726Z,17.70
2023-03-29T13:36:23.837Z,17.80
2023-03-29T13:38:53.149Z,17.80
2023-03-29T13:41:43.117Z,17.90
2023-03-29T13:44:22.168Z,18.00
2023-03-29T13:46:49.738Z,18.00
2023-03-29T13:49:21.188Z,17.90
2023-03-29T13:52:00.117Z,17.80
2023-03-29T13:54:28.542Z,17.50
2023-03-29T13:57:03.937Z,17.30
2023-03-29T13:59:49.268Z,17.10
2023-03-29T14:02:30.741Z,17.00
2023-03-29T14:04:59.900Z,16.80
2023-03-29T14:07:27.681Z,16.60
2023-03-29T14:09:55.525Z,16.30
2023-03-29T14:12:22.389Z,16.10
2023-03-29T14:14:58.962Z,16.00
2023-03-29T14:17:26.630Z,15.90
2023-03-29T14:19:53.568Z,15.80
2023-03-29T14:22:20.801Z,15.70
2023-03-29T14:24:58.293Z,15.70
2023-03-29T14:27:24.966Z,15.50
2023-03-29T14:29:52.309Z,15.50
2023-03-29T14:32:20.028Z,15.50
2023-03-29T14:34:50.319Z,15.60
2023-03-29T14:37:27.674Z,15.60
2023-03-29T14:39:54.928Z,15.60
2023-03-29T14:42:26.613Z,15.60
2023-03-29T14:44:57.664Z,15.50
2023-03-29T14:47:28.502Z,15.50
2023-03-29T14:49:56.957Z,15.50
2023-03-29T14:52:23.677Z,15.40
2023-03-29T14:54:52.393Z,15.50
2023-03-29T14:57:19.045Z,15.50
2023-03-29T14:59:54.323Z,15.40
2023-03-29T15:02:41.459Z,15.40
2023-03-29T15:05:24.925Z,15.30
2023-03-29T15:07:55.917Z,15.10
2023-03-29T15:10:23.112Z,14.90
2023-03-29T15:12:50.065Z,14.80
2023-03-29T15:15:17.047Z,14.70
2023-03-29T15:17:51.948Z,14.50
2023-03-29T15:20:23.249Z,14.40
2023-03-29T15:23:04.444Z,14.10
2023-03-29T15:25:35.955Z,14.00
2023-03-29T15:28:02.670Z,13.80
2023-03-29T15:30:34.337Z,13.70
2023-03-29T15:33:15.096Z,13.50
2023-03-29T15:35:42.590Z,13.40
2023-03-29T15:38:11.014Z,13.30
2023-03-29T15:40:37.794Z,13.10
2023-03-29T15:43:04.552Z,13.10
2023-03-29T15:45:31.150Z,13.00
2023-03-29T15:47:57.886Z,12.90
2023-03-29T15:50:24.594Z,12.80
2023-03-29T15:52:51.274Z,12.80
2023-03-29T15:55:18.464Z,12.80
2023-03-29T15:57:47.403Z,12.80
2023-03-29T16:00:16.807Z,12.90
2023-03-29T16:02:43.624Z,12.90
2023-03-29T16:05:10.647Z,12.90
2023-03-29T16:07:37.509Z,12.90
2023-03-29T16:10:04.289Z,12.90
2023-03-29T16:12:31.179Z,12.80
2023-03-29T16:14:57.931Z,12.70
2023-03-29T16:17:24.659Z,12.60
2023-03-29T16:19:51.664Z,12.60
2023-03-29T16:22:18.276Z,12.50
2023-03-29T16:24:44.909Z,12.50
2023-03-29T16:27:11.689Z,12.40
2023-03-29T16:29:38.340Z,12.40
2023-03-29T16:32:06.868Z,12.30
2023-03-29T16:34:33.849Z,12.30
2023-03-29T16:37:00.946Z,12.20
2023-03-29T16:39:27.727Z,12.10
2023-03-29T16:41:54.384Z,12.00
2023-03-29T16:44:23.791Z,12.00
2023-03-29T16:46:53.723Z,11.90
2023-03-29T16:49:20.436Z,11.90
2023-03-29T16:51:47.303Z,11.90
2023-03-29T16:54:14.405Z,11.80
2023-03-29T16:56:41.242Z,11.70
2023-03-29T16:59:09.113Z,11.70
2023-03-29T17:01:36.511Z,11.60
2023-03-29T17:04:03.395Z,11.60
2023-03-29T17:06:31.851Z,11.50
2023-03-29T17:08:59.092Z,11.40
2023-03-29T17:11:26.114Z,11.30
2023-03-29T17:13:52.976Z,11.20
2023-03-29T17:16:19.949Z,11.10
2023-03-29T17:18:46.643Z,11.00
2023-03-29T17:21:13.503Z,10.90
2023-03-29T17:23:40.360Z,10.80
2023-03-29T17:26:07.650Z,10.80
2023-03-29T17:28:34.883Z,10.70
2023-03-29T17:31:07.060Z,10.70
2023-03-29T17:33:34.143Z,10.70
2023-03-29T17:36:01.197Z,10.70
2023-03-29T17:38:30.270Z,10.70
2023-03-29T17:40:56.922Z,10.80
2023-03-29T17:43:23.571Z,10.80
2023-03-29T17:45:51.572Z,10.80
2023-03-29T17:48:19.341Z,10.80
2023-03-29T17:50:46.025Z,10.70
2023-03-29T17:53:13.332Z,10.70
2023-03-29T17:55:40.923Z,10.70
2023-03-29T17:58:08.019Z,10.60
2023-03-29T18:00:34.656Z,10.60
2023-03-29T18:03:01.517Z,10.50
2023-03-29T18:05:28.184Z,10.50
2023-03-29T18:07:55.151Z,10.40
2023-03-29T18:10:21.913Z,10.40
2023-03-29T18:12:48.581Z,10.30
2023-03-29T18:15:15.273Z,10.30
2023-03-29T18:17:42.007Z,10.30
2023-03-29T18:20:11.563Z,10.20
2023-03-29T18:22:39.096Z,10.20
2023-03-29T18:25:07.052Z,10.10
2023-03-29T18:27:33.708Z,10.10
2023-03-29T18:30:00.504Z,10.10
2023-03-29T18:32:27.153Z,10.10
2023-03-29T18:34:53.798Z,10.00
2023-03-29T18:37:20.889Z,10.00
2023-03-29T18:39:47.991Z,10.00
2023-03-29T18:42:14.795Z,10.00
2023-03-29T18:44:42.222Z,10.00
2023-03-29T18:47:09.037Z,9.90
2023-03-29T18:49:36.629Z,9.90
2023-03-29T18:52:04.687Z,9.80
2023-03-29T18:54:31.362Z,9.80
2023-03-29T18:56:59.244Z,9.70
2023-03-29T18:59:26.414Z,9.70
2023-03-29T19:01:53.092Z,9.60
2023-03-29T19:04:20.046Z,9.60
2023-03-29T19:06:47.467Z,9.50
2023-03-29T19:09:14.291Z,9.50
2023-03-29T19:11:41.085Z,9.50
2023-03-29T19:14:09.121Z,9.50
2023-03-29T19:16:36.040Z,9.50
2023-03-29T19:19:02.716Z,9.50
2023-03-29T19:21:31.600Z,9.50
2023-03-29T19:24:00.605Z,9.60
2023-03-29T19:26:28.598Z,9.60
2023-03-29T19:28:55.230Z,9.60
2023-03-29T19:31:22.553Z,9.60
2023-03-29T19:33:49.233Z,9.60
2023-03-29T19:36:16.101Z,9.50
2023-03-29T19:38:42.814Z,9.60
2023-03-29T19:41:09.449Z,9.60
2023-03-29T19:43:36.121Z,9.60
2023-03-29T19:46:07.826Z,9.60
2023-03-29T19:48:34.610Z,9.60
2023-03-29T19:51:02.616Z,9.60
2023-03-29T19:53:29.570Z,9.50
2023-03-29T19:55:56.190Z,9.60
2023-03-29T19:58:22.906Z,9.60
2023-03-29T20:00:53.130Z,9.60
2023-03-29T20:03:21.778Z,9.60
2023-03-29T20:05:48.442Z,9.60
2023-03-29T20:08:15.272Z,9.60
2023-03-29T20:10:42.479Z,9.70
2023-03-29T20:13:09.101Z,9.70
2023-03-29T20:15:35.928Z,9.80
2023-03-29T20:18:02.701Z,9.80
2023-03-29T20:20:29.936Z,9.90
2023-03-29T20:23:04.754Z,10.00
2023-03-29T20:25:32.565Z,10.10
2023-03-29T20:27:59.619Z,10.20
2023-03-29T20:30:26.399Z,10.20
2023-03-29T20:32:53.212Z,10.30
2023-03-29T20:35:19.955Z,10.40
2023-03-29T20:37:46.549Z,10.50
2023-03-29T20:40:15.702Z,10.50
2023-03-29T20:42:42.394Z,10.60
2023-03-29T20:45:18.300Z,10.60
2023-03-29T20:47:57.595Z,10.70
2023-03-29T20:50:28.463Z,10.70
2023-03-29T20:52:55.628Z,10.80
2023-03-29T20:55:22.980Z,10.80
2023-03-29T20:57:51.353Z,10.80
2023-03-29T21:00:19.798Z,10.80
2023-03-29T21:02:46.943Z,10.80
2023-03-29T21:05:13.864Z,10.80
2023-03-29T21:07:40.510Z,10.80
2023-03-29T21:10:07.354Z,10.80
2023-03-29T21:12:34.005Z,10.80
2023-03-29T21:15:02.298Z,10.80
2023-03-29T21:17:29.005Z,10.80
2023-03-29T21:19:55.631Z,10.70
2023-03-29T21:22:23.246Z,10.70
2023-03-29T21:24:50.454Z,10.60
2023-03-29T21:27:17.702Z,10.60
2023-03-29T21:29:44.297Z,10.50
2023-03-29T21:32:11.140Z,10.50
2023-03-29T21:34:37.765Z,10.50
2023-03-29T21:37:04.349Z,10.40
2023-03-29T21:39:31.362Z,10.40
2023-03-29T21:41:59.042Z,10.40
2023-03-29T21:44:26.360Z,10.30
2023-03-29T21:46:53.428Z,10.30
2023-03-29T21:49:20.273Z,10.30
2023-03-29T21:51:46.901Z,10.30
2023-03-29T21:54:13.479Z,10.30
2023-03-29T21:56:40.147Z,10.30
2023-03-29T21:59:06.800Z,10.30
2023-03-29T22:01:33.429Z,10.30
2023-03-29T22:04:00.176Z,10.30
2023-03-29T22:06:26.836Z,10.30
2023-03-29T22:08:53.456Z,10.30
2023-03-29T22:11:20.129Z,10.30
2023-03-29T22:13:46.824Z,10.40
2023-03-29T22:16:14.020Z,10.30
2023-03-29T22:18:43.887Z,10.40
2023-03-29T22:21:15.269Z,10.40
2023-03-29T22:23:42.998Z,10.40
2023-03-29T22:26:11.068Z,10.40
2023-03-29T22:28:37.811Z,10.40
2023-03-29T22:31:05.668Z,10.40
2023-03-29T22:33:33.250Z,10.40
2023-03-29T22:36:00.548Z,10.40
2023-03-29T22:38:27.810Z,10.40
2023-03-29T22:40:54.921Z,10.30
2023-03-29T22:43:22.045Z,10.30
2023-03-29T22:45:48.915Z,10.30
2023-03-29T22:48:15.920Z,10.30
2023-03-29T22:50:45.593Z,10.30
2023-03-29T22:53:12.293Z,10.30
2023-03-29T22:55:38.903Z,10.20
2023-03-29T22:58:05.608Z,10.20
2023-03-29T23:00:32.215Z,10.20
2023-03-29T23:02:58.968Z,10.20
2023-03-29T23:05:25.646Z,10.20
2023-03-29T23:07:52.322Z,10.20
2023-03-29T23:10:18.965Z,10.20
2023-03-29T23:12:45.618Z,10.10
2023-03-29T23:15:12.449Z,10.10
2023-03-29T23:17:39.099Z,10.10
2023-03-29T23:20:06.275Z,10.10
2023-03-29T23:22:34.217Z,10.10
2023-03-29T23:25:00.837Z,10.10
2023-03-29T23:27:27.502Z,10.00
2023-03-29T23:29:55.458Z,10.00
2023-03-29T23:32:22.059Z,10.00
2023-03-29T23:34:48.682Z,10.00
2023-03-29T23:37:15.270Z,10.00
2023-03-29T23:39:41.934Z,10.10
2023-03-29T23:42:08.527Z,10.10
2023-03-29T23:44:35.155Z,10.10
2023-03-29T23:47:01.832Z,10.10
2023-03-29T23:49:28.475Z,10.10
2023-03-29T23:51:55.928Z,10.10
2023-03-29T23:54:22.597Z,10.10
2023-03-29T23:56:49.283Z,10.10
2023-03-29T23:59:16.355Z,10.10
